sensor_id;sensor_type;location;lat;lon;timestamp;pressure;altitude;pressure_sealevel;temperature;humidity
77517;BME280;68414;53.946;27.634;2024-02-15T00:00:32;99844.453125;;;2.590000;68.257812
77517;BME280;68414;53.946;27.634;2024-02-15T00:01:32;99847.781250;;;2.550000;68.447266
77517;BME280;68414;53.946;27.634;2024-02-15T00:02:32;99843.640625;;;2.590000;68.660156
77517;BME280;68414;53.946;27.634;2024-02-15T00:03:32;99849.656250;;;2.660000;68.366211
77517;BME280;68414;53.946;27.634;2024-02-15T00:04:32;99852.437500;;;2.710000;68.188477
77517;BME280;68414;53.946;27.634;2024-02-15T00:05:33;99856.843750;;;2.770000;68.176758
77517;BME280;68414;53.946;27.634;2024-02-15T00:06:32;99854.281250;;;2.820000;68.033203
77517;BME280;68414;53.946;27.634;2024-02-15T00:07:32;99863.171875;;;2.880000;68.095703
77517;BME280;68414;53.946;27.634;2024-02-15T00:08:32;99856.250000;;;2.870000;67.461914
77517;BME280;68414;53.946;27.634;2024-02-15T00:09:32;99859.359375;;;2.840000;67.947266
77517;BME280;68414;53.946;27.634;2024-02-15T00:10:32;99859.585938;;;2.820000;68.283203
77517;BME280;68414;53.946;27.634;2024-02-15T00:11:33;99850.140625;;;2.750000;67.125977
77517;BME280;68414;53.946;27.634;2024-02-15T00:12:33;99850.695312;;;2.650000;68.234375
77517;BME280;68414;53.946;27.634;2024-02-15T00:13:33;99861.890625;;;2.670000;68.378906
77517;BME280;68414;53.946;27.634;2024-02-15T00:14:32;99855.671875;;;2.730000;68.247070
77517;BME280;68414;53.946;27.634;2024-02-15T00:15:32;99858.421875;;;2.780000;68.014648
77517;BME280;68414;53.946;27.634;2024-02-15T00:16:33;99853.601562;;;2.750000;67.388672
77517;BME280;68414;53.946;27.634;2024-02-15T00:17:33;99857.289062;;;2.740000;67.911133
77517;BME280;68414;53.946;27.634;2024-02-15T00:18:32;99850.367188;;;2.730000;68.094727
77517;BME280;68414;53.946;27.634;2024-02-15T00:19:32;99847.000000;;;2.780000;68.003906
77517;BME280;68414;53.946;27.634;2024-02-15T00:20:33;99853.828125;;;2.850000;67.906250
77517;BME280;68414;53.946;27.634;2024-02-15T00:21:33;99856.015625;;;2.880000;67.725586
77517;BME280;68414;53.946;27.634;2024-02-15T00:22:32;99862.367188;;;2.870000;67.833008
77517;BME280;68414;53.946;27.634;2024-02-15T00:23:32;99862.265625;;;2.940000;67.777344
77517;BME280;68414;53.946;27.634;2024-02-15T00:24:33;99859.960938;;;2.970000;67.293945
77517;BME280;68414;53.946;27.634;2024-02-15T00:25:32;99864.687500;;;2.950000;67.367188
77517;BME280;68414;53.946;27.634;2024-02-15T00:26:32;99865.953125;;;2.930000;67.439453
77517;BME280;68414;53.946;27.634;2024-02-15T00:27:33;99867.921875;;;2.970000;67.598633
77517;BME280;68414;53.946;27.634;2024-02-15T00:28:32;99858.812500;;;3.050000;67.534180
77517;BME280;68414;53.946;27.634;2024-02-15T00:29:32;99858.703125;;;3.120000;67.326172
77517;BME280;68414;53.946;27.634;2024-02-15T00:30:34;99860.640625;;;3.160000;67.125977
77517;BME280;68414;53.946;27.634;2024-02-15T00:31:32;99860.984375;;;3.200000;66.847656
77517;BME280;68414;53.946;27.634;2024-02-15T00:32:37;99855.218750;;;3.230000;66.656250
77517;BME280;68414;53.946;27.634;2024-02-15T00:33:34;99865.382812;;;3.260000;66.528320
77517;BME280;68414;53.946;27.634;2024-02-15T00:34:32;99863.296875;;;3.280000;66.368164
77517;BME280;68414;53.946;27.634;2024-02-15T00:35:32;99858.218750;;;3.260000;66.267578
77517;BME280;68414;53.946;27.634;2024-02-15T00:36:32;99863.875000;;;3.300000;66.404297
77517;BME280;68414;53.946;27.634;2024-02-15T00:37:33;99864.921875;;;3.290000;66.075195
77517;BME280;68414;53.946;27.634;2024-02-15T00:38:33;99857.750000;;;3.180000;65.818359
77517;BME280;68414;53.946;27.634;2024-02-15T00:39:32;99865.281250;;;3.090000;66.895508
77517;BME280;68414;53.946;27.634;2024-02-15T00:40:32;99864.687500;;;2.950000;66.679688
77517;BME280;68414;53.946;27.634;2024-02-15T00:41:32;99862.140625;;;2.890000;67.966797
77517;BME280;68414;53.946;27.634;2024-02-15T00:42:34;99865.718750;;;2.940000;67.942383
77517;BME280;68414;53.946;27.634;2024-02-15T00:43:34;99868.500000;;;2.990000;67.416016
77517;BME280;68414;53.946;27.634;2024-02-15T00:44:32;99863.312500;;;3.050000;67.172852
77517;BME280;68414;53.946;27.634;2024-02-15T00:45:32;99864.937500;;;3.060000;66.280273
77517;BME280;68414;53.946;27.634;2024-02-15T00:46:32;99862.281250;;;3.060000;66.214844
77517;BME280;68414;53.946;27.634;2024-02-15T00:47:32;99864.468750;;;3.090000;66.708984
77517;BME280;68414;53.946;27.634;2024-02-15T00:48:32;99867.218750;;;3.140000;66.848633
77517;BME280;68414;53.946;27.634;2024-02-15T00:49:32;99872.648438;;;3.190000;66.245117
77517;BME280;68414;53.946;27.634;2024-02-15T00:50:32;99870.804688;;;3.190000;66.168945
77517;BME280;68414;53.946;27.634;2024-02-15T00:51:33;99869.187500;;;3.180000;66.003906
77517;BME280;68414;53.946;27.634;2024-02-15T00:52:32;99870.109375;;;2.770000;66.028320
77517;BME280;68414;53.946;27.634;2024-02-15T00:53:34;99870.625000;;;2.560000;66.933594
77517;BME280;68414;53.946;27.634;2024-02-15T00:54:32;99870.359375;;;2.460000;67.779297
77517;BME280;68414;53.946;27.634;2024-02-15T00:55:32;99866.429688;;;2.370000;68.362305
77517;BME280;68414;53.946;27.634;2024-02-15T00:56:33;99864.718750;;;2.420000;67.904297
77517;BME280;68414;53.946;27.634;2024-02-15T00:57:32;99869.773438;;;2.440000;68.025391
77517;BME280;68414;53.946;27.634;2024-02-15T00:58:34;99866.796875;;;2.400000;67.606445
77517;BME280;68414;53.946;27.634;2024-02-15T00:59:32;99872.320312;;;2.390000;68.061523
77517;BME280;68414;53.946;27.634;2024-02-15T01:00:32;99880.453125;;;2.250000;68.889648
77517;BME280;68414;53.946;27.634;2024-02-15T01:01:32;99870.289062;;;2.220000;68.449219
77517;BME280;68414;53.946;27.634;2024-02-15T01:02:32;99873.078125;;;2.270000;69.111328
77517;BME280;68414;53.946;27.634;2024-02-15T01:03:32;99873.750000;;;2.230000;68.614258
77517;BME280;68414;53.946;27.634;2024-02-15T01:04:33;99870.375000;;;2.160000;69.332031
77517;BME280;68414;53.946;27.634;2024-02-15T01:05:32;99875.898438;;;2.140000;69.644531
77517;BME280;68414;53.946;27.634;2024-02-15T01:06:32;99875.593750;;;2.220000;69.548828
77517;BME280;68414;53.946;27.634;2024-02-15T01:07:32;99877.710938;;;2.320000;69.531250
77517;BME280;68414;53.946;27.634;2024-02-15T01:08:33;99879.343750;;;2.450000;69.475586
77517;BME280;68414;53.946;27.634;2024-02-15T01:09:32;99872.468750;;;2.550000;68.916016
77517;BME280;68414;53.946;27.634;2024-02-15T01:10:32;99876.187500;;;2.660000;68.508789
77517;BME280;68414;53.946;27.634;2024-02-15T01:11:32;99872.406250;;;2.740000;68.018555
77517;BME280;68414;53.946;27.634;2024-02-15T01:12:32;99865.929688;;;2.810000;67.964844
77517;BME280;68414;53.946;27.634;2024-02-15T01:13:33;99872.750000;;;2.890000;67.562500
77517;BME280;68414;53.946;27.634;2024-02-15T01:14:32;99872.070312;;;2.930000;67.494141
77517;BME280;68414;53.946;27.634;2024-02-15T01:15:32;99867.796875;;;2.920000;66.608398
77517;BME280;68414;53.946;27.634;2024-02-15T01:16:32;99872.070312;;;2.930000;66.958984
77517;BME280;68414;53.946;27.634;2024-02-15T01:17:32;99875.312500;;;2.950000;67.333984
77517;BME280;68414;53.946;27.634;2024-02-15T01:18:32;99866.890625;;;2.980000;67.490234
77517;BME280;68414;53.946;27.634;2024-02-15T01:19:32;99876.593750;;;3.050000;67.390625
77517;BME280;68414;53.946;27.634;2024-02-15T01:20:32;99875.093750;;;3.090000;67.046875
77517;BME280;68414;53.946;27.634;2024-02-15T01:21:32;99881.218750;;;3.090000;66.960938
77517;BME280;68414;53.946;27.634;2024-02-15T01:22:32;99881.218750;;;3.090000;66.753906
77517;BME280;68414;53.946;27.634;2024-02-15T01:23:32;99881.531250;;;3.130000;67.021484
77517;BME280;68414;53.946;27.634;2024-02-15T01:24:32;99878.875000;;;3.130000;66.694336
77517;BME280;68414;53.946;27.634;2024-02-15T01:25:33;99878.328125;;;3.110000;66.680664
77517;BME280;68414;53.946;27.634;2024-02-15T01:26:32;99882.484375;;;3.070000;67.000977
77517;BME280;68414;53.946;27.634;2024-02-15T01:27:32;99873.937500;;;3.050000;66.899414
77517;BME280;68414;53.946;27.634;2024-02-15T01:28:33;99877.500000;;;2.980000;67.085938
77517;BME280;68414;53.946;27.634;2024-02-15T01:29:33;99872.648438;;;2.950000;67.584961
77517;BME280;68414;53.946;27.634;2024-02-15T01:30:32;99872.421875;;;2.970000;67.641602
77517;BME280;68414;53.946;27.634;2024-02-15T01:31:32;99874.968750;;;3.030000;67.575195
77517;BME280;68414;53.946;27.634;2024-02-15T01:32:32;99877.515625;;;3.100000;67.455078
77517;BME280;68414;53.946;27.634;2024-02-15T01:33:32;99874.140625;;;3.150000;67.439453
77517;BME280;68414;53.946;27.634;2024-02-15T01:34:32;99875.882812;;;3.210000;67.285156
77517;BME280;68414;53.946;27.634;2024-02-15T01:35:32;99876.468750;;;3.230000;67.115234
77517;BME280;68414;53.946;27.634;2024-02-15T01:36:32;99871.156250;;;3.230000;67.039062
77517;BME280;68414;53.946;27.634;2024-02-15T01:37:32;99877.039062;;;3.250000;67.041016
77517;BME280;68414;53.946;27.634;2024-02-15T01:38:32;99876.812500;;;3.260000;66.922852
77517;BME280;68414;53.946;27.634;2024-02-15T01:39:32;99881.429688;;;3.310000;66.940430
77517;BME280;68414;53.946;27.634;2024-02-15T01:40:33;99886.054688;;;3.350000;66.794922
77517;BME280;68414;53.946;27.634;2024-02-15T01:41:32;99879.468750;;;3.380000;66.591797
77517;BME280;68414;53.946;27.634;2024-02-15T01:42:32;99873.578125;;;3.360000;66.008789
77517;BME280;68414;53.946;27.634;2024-02-15T01:43:32;99879.929688;;;3.350000;65.844727
77517;BME280;68414;53.946;27.634;2024-02-15T01:44:32;99878.546875;;;3.320000;66.167969
77517;BME280;68414;53.946;27.634;2024-02-15T01:45:32;99875.546875;;;3.290000;65.976562
77517;BME280;68414;53.946;27.634;2024-02-15T01:46:32;99877.156250;;;3.300000;65.825195
77517;BME280;68414;53.946;27.634;2024-02-15T01:47:32;99879.703125;;;3.250000;66.113281
77517;BME280;68414;53.946;27.634;2024-02-15T01:48:32;99876.468750;;;3.230000;66.263672
77517;BME280;68414;53.946;27.634;2024-02-15T01:49:32;99874.617188;;;3.230000;66.285156
77517;BME280;68414;53.946;27.634;2024-02-15T01:50:32;99879.703125;;;3.250000;66.134766
77517;BME280;68414;53.946;27.634;2024-02-15T01:51:32;99881.531250;;;3.130000;66.125977
77517;BME280;68414;53.946;27.634;2024-02-15T01:52:32;99883.515625;;;3.060000;67.110352
77517;BME280;68414;53.946;27.634;2024-02-15T01:53:32;99884.554688;;;3.050000;67.390625
77517;BME280;68414;53.946;27.634;2024-02-15T01:54:32;99887.328125;;;3.100000;67.344727
77517;BME280;68414;53.946;27.634;2024-02-15T01:55:32;99888.234375;;;3.150000;67.167969
77517;BME280;68414;53.946;27.634;2024-02-15T01:56:32;99886.968750;;;3.180000;66.986328
77517;BME280;68414;53.946;27.634;2024-02-15T01:57:32;99887.546875;;;3.200000;66.770508
77517;BME280;68414;53.946;27.634;2024-02-15T01:58:32;99881.773438;;;3.230000;66.700195
77517;BME280;68414;53.946;27.634;2024-02-15T01:59:32;99885.007812;;;3.250000;66.692383
77517;BME280;68414;53.946;27.634;2024-02-15T02:00:32;99884.546875;;;3.280000;66.696289
77517;BME280;68414;53.946;27.634;2024-02-15T02:01:32;99880.859375;;;3.290000;66.511719
77517;BME280;68414;53.946;27.634;2024-02-15T02:02:32;99882.468750;;;3.300000;66.579102
77517;BME280;68414;53.946;27.634;2024-02-15T02:03:32;99883.515625;;;3.290000;66.359375
77517;BME280;68414;53.946;27.634;2024-02-15T02:04:32;99879.234375;;;3.280000;66.532227
77517;BME280;68414;53.946;27.634;2024-02-15T02:05:32;99880.507812;;;3.250000;66.735352
77517;BME280;68414;53.946;27.634;2024-02-15T02:06:32;99878.890625;;;3.240000;66.635742
77517;BME280;68414;53.946;27.634;2024-02-15T02:07:34;99879.468750;;;3.260000;66.638672
77517;BME280;68414;53.946;27.634;2024-02-15T02:08:33;99880.859375;;;3.290000;66.424805
77517;BME280;68414;53.946;27.634;2024-02-15T02:09:32;99884.546875;;;3.280000;66.368164
77517;BME280;68414;53.946;27.634;2024-02-15T02:10:32;99880.859375;;;3.290000;66.370117
77517;BME280;68414;53.946;27.634;2024-02-15T02:11:32;99887.781250;;;3.300000;66.502930
77517;BME280;68414;53.946;27.634;2024-02-15T02:12:32;99889.632812;;;3.290000;66.360352
77517;BME280;68414;53.946;27.634;2024-02-15T02:13:32;99881.312500;;;3.260000;66.277344
77517;BME280;68414;53.946;27.634;2024-02-15T02:14:32;99882.234375;;;3.200000;66.399414
77517;BME280;68414;53.946;27.634;2024-02-15T02:15:32;99884.312500;;;3.180000;66.746094
77517;BME280;68414;53.946;27.634;2024-02-15T02:16:32;99880.843750;;;3.170000;66.733398
77517;BME280;68414;53.946;27.634;2024-02-15T02:17:32;99881.078125;;;3.160000;66.916992
77517;BME280;68414;53.946;27.634;2024-02-15T02:18:32;99887.546875;;;3.200000;67.033203
77517;BME280;68414;53.946;27.634;2024-02-15T02:19:32;99885.468750;;;3.220000;66.872070
77517;BME280;68414;53.946;27.634;2024-02-15T02:20:32;99884.429688;;;3.230000;66.798828
77517;BME280;68414;53.946;27.634;2024-02-15T02:21:32;99879.703125;;;3.250000;67.074219
77517;BME280;68414;53.946;27.634;2024-02-15T02:22:32;99877.851562;;;3.250000;67.074219
77517;BME280;68414;53.946;27.634;2024-02-15T02:23:32;99876.710938;;;3.100000;66.962891
77517;BME280;68414;53.946;27.634;2024-02-15T02:24:33;99868.734375;;;2.980000;68.286133
77517;BME280;68414;53.946;27.634;2024-02-15T02:25:32;99877.250000;;;2.880000;67.713867
77517;BME280;68414;53.946;27.634;2024-02-15T02:26:32;99875.640625;;;2.760000;68.687500
77517;BME280;68414;53.946;27.634;2024-02-15T02:27:32;99881.046875;;;2.690000;69.788086
77517;BME280;68414;53.946;27.634;2024-02-15T02:28:32;99871.593750;;;2.730000;69.860352
77517;BME280;68414;53.946;27.634;2024-02-15T02:29:32;99878.390625;;;2.810000;69.284180
77517;BME280;68414;53.946;27.634;2024-02-15T02:30:32;99874.343750;;;2.780000;69.083008
77517;BME280;68414;53.946;27.634;2024-02-15T02:31:33;99879.781250;;;2.830000;69.026367
77517;BME280;68414;53.946;27.634;2024-02-15T02:32:33;99867.218750;;;2.900000;68.514648
77517;BME280;68414;53.946;27.634;2024-02-15T02:33:32;99883.695312;;;2.690000;68.185547
77517;BME280;68414;53.946;27.634;2024-02-15T02:34:32;99889.453125;;;2.660000;68.868164
77517;BME280;68414;53.946;27.634;2024-02-15T02:35:32;99880.914062;;;2.640000;69.211914
77517;BME280;68414;53.946;27.634;2024-02-15T02:36:32;99885.187500;;;2.650000;69.585938
77517;BME280;68414;53.946;27.634;2024-02-15T02:37:32;99881.859375;;;2.690000;69.418945
77517;BME280;68414;53.946;27.634;2024-02-15T02:38:32;99883.117188;;;2.790000;69.443359
77517;BME280;68414;53.946;27.634;2024-02-15T02:39:32;99881.984375;;;2.860000;69.107422
77517;BME280;68414;53.946;27.634;2024-02-15T02:40:32;99883.140625;;;2.900000;68.525391
77517;BME280;68414;53.946;27.634;2024-02-15T02:41:32;99881.984375;;;2.860000;68.289062
77517;BME280;68414;53.946;27.634;2024-02-15T02:42:32;99882.109375;;;2.910000;68.700195
77517;BME280;68414;53.946;27.634;2024-02-15T02:43:32;99891.234375;;;2.950000;68.272461
77517;BME280;68414;53.946;27.634;2024-02-15T02:44:32;99888.804688;;;2.940000;67.547852
77517;BME280;68414;53.946;27.634;2024-02-15T02:45:32;99894.765625;;;2.660000;68.497070
77517;BME280;68414;53.946;27.634;2024-02-15T02:46:32;99886.984375;;;2.530000;69.599609
77517;BME280;68414;53.946;27.634;2024-02-15T02:47:32;99893.914062;;;2.540000;70.318359
77517;BME280;68414;53.946;27.634;2024-02-15T02:48:32;99895.078125;;;2.580000;70.107422
77517;BME280;68414;53.946;27.634;2024-02-15T02:49:32;99887.343750;;;2.560000;70.670898
77517;BME280;68414;53.946;27.634;2024-02-15T02:50:32;99886.796875;;;2.660000;70.425781
77517;BME280;68414;53.946;27.634;2024-02-15T02:51:32;99893.984375;;;2.770000;69.659180
77517;BME280;68414;53.946;27.634;2024-02-15T02:52:32;99890.171875;;;2.850000;69.301758
77517;BME280;68414;53.946;27.634;2024-02-15T02:53:32;99891.109375;;;2.900000;68.929688
77517;BME280;68414;53.946;27.634;2024-02-15T02:54:32;99891.007812;;;2.970000;68.776367
77517;BME280;68414;53.946;27.634;2024-02-15T02:55:32;99891.937500;;;3.020000;68.544922
77517;BME280;68414;53.946;27.634;2024-02-15T02:56:32;99896.796875;;;3.060000;68.168945
77517;BME280;68414;53.946;27.634;2024-02-15T02:57:32;99891.789062;;;2.860000;68.649414
77517;BME280;68414;53.946;27.634;2024-02-15T02:58:32;99889.773438;;;2.580000;68.876953
77517;BME280;68414;53.946;27.634;2024-02-15T03:00:32;99895.890625;;;2.580000;69.988281
77517;BME280;68414;53.946;27.634;2024-02-15T03:01:32;99890.937500;;;2.620000;69.753906
77517;BME280;68414;53.946;27.634;2024-02-15T03:02:32;99887.390625;;;2.680000;69.655273
77517;BME280;68414;53.946;27.634;2024-02-15T03:03:32;99895.929688;;;2.700000;69.202148
77517;BME280;68414;53.946;27.634;2024-02-15T03:04:32;99895.531250;;;2.550000;68.872070
77517;BME280;68414;53.946;27.634;2024-02-15T03:05:32;99895.257812;;;2.450000;69.693359
77517;BME280;68414;53.946;27.634;2024-02-15T03:06:32;99900.765625;;;2.310000;70.402344
77517;BME280;68414;53.946;27.634;2024-02-15T03:07:32;99897.695312;;;2.160000;70.376953
77517;BME280;68414;53.946;27.634;2024-02-15T03:08:32;99893.023438;;;2.000000;70.806641
77517;BME280;68414;53.946;27.634;2024-02-15T03:09:32;99895.750000;;;1.930000;71.644531
77517;BME280;68414;53.946;27.634;2024-02-15T03:10:32;99897.734375;;;1.980000;71.379883
77517;BME280;68414;53.946;27.634;2024-02-15T03:11:32;99910.687500;;;1.880000;71.624023
77517;BME280;68414;53.946;27.634;2024-02-15T03:12:32;99903.773438;;;1.870000;71.796875
77517;BME280;68414;53.946;27.634;2024-02-15T03:13:32;99902.156250;;;1.860000;72.816406
77517;BME280;68414;53.946;27.634;2024-02-15T03:14:32;99903.257812;;;1.960000;72.811523
77517;BME280;68414;53.946;27.634;2024-02-15T03:15:32;99905.945312;;;2.080000;72.355469
77517;BME280;68414;53.946;27.634;2024-02-15T03:16:32;99896.742188;;;2.110000;71.325195
77517;BME280;68414;53.946;27.634;2024-02-15T03:17:32;99899.984375;;;2.130000;71.828125
77517;BME280;68414;53.946;27.634;2024-02-15T03:18:32;99897.468750;;;2.180000;71.891602
77517;BME280;68414;53.946;27.634;2024-02-15T03:19:32;99897.390625;;;2.240000;71.000000
77517;BME280;68414;53.946;27.634;2024-02-15T03:20:32;99905.343750;;;2.240000;70.989258
77517;BME280;68414;53.946;27.634;2024-02-15T03:21:32;99905.171875;;;2.080000;71.157227
77517;BME280;68414;53.946;27.634;2024-02-15T03:22:32;99902.296875;;;1.910000;71.619141
77517;BME280;68414;53.946;27.634;2024-02-15T03:23:32;99911.132812;;;1.850000;72.326172
77517;BME280;68414;53.946;27.634;2024-02-15T03:24:32;99903.546875;;;1.880000;72.452148
77517;BME280;68414;53.946;27.634;2024-02-15T03:25:32;99908.921875;;;2.000000;72.502930
77517;BME280;68414;53.946;27.634;2024-02-15T03:26:32;99916.289062;;;1.980000;71.553711
77517;BME280;68414;53.946;27.634;2024-02-15T03:27:32;99909.375000;;;1.970000;71.976562
77517;BME280;68414;53.946;27.634;2024-02-15T03:28:32;99918.343750;;;1.960000;71.757812
77517;BME280;68414;53.946;27.634;2024-02-15T03:29:32;99912.164062;;;2.020000;72.571289
77517;BME280;68414;53.946;27.634;2024-02-15T03:30:32;99911.718750;;;2.050000;71.414062
77517;BME280;68414;53.946;27.634;2024-02-15T03:31:32;99919.203125;;;2.080000;71.409180
77517;BME280;68414;53.946;27.634;2024-02-15T03:32:32;99912.164062;;;2.020000;71.832031
77517;BME280;68414;53.946;27.634;2024-02-15T03:33:32;99916.546875;;;2.080000;72.550781
77517;BME280;68414;53.946;27.634;2024-02-15T03:34:32;99921.406250;;;2.110000;72.325195
77517;BME280;68414;53.946;27.634;2024-02-15T03:35:32;99921.109375;;;2.190000;71.861328
77517;BME280;68414;53.946;27.634;2024-02-15T03:36:32;99915.500000;;;2.270000;71.941406
77517;BME280;68414;53.946;27.634;2024-02-15T03:37:32;99922.703125;;;2.390000;71.752930
77517;BME280;68414;53.946;27.634;2024-02-15T03:38:32;99920.164062;;;2.440000;71.325195
77517;BME280;68414;53.946;27.634;2024-02-15T03:39:32;99919.718750;;;2.470000;71.264648
77517;BME280;68414;53.946;27.634;2024-02-15T03:40:32;99922.062500;;;2.550000;71.399414
77517;BME280;68414;53.946;27.634;2024-02-15T03:41:32;99927.640625;;;2.650000;71.166016
77517;BME280;68414;53.946;27.634;2024-02-15T03:42:32;99919.359375;;;2.730000;70.732422
77517;BME280;68414;53.946;27.634;2024-02-15T03:43:32;99919.007812;;;2.810000;70.330078
77517;BME280;68414;53.946;27.634;2024-02-15T03:44:32;99921.796875;;;2.860000;70.055664
77517;BME280;68414;53.946;27.634;2024-02-15T03:45:32;99921.343750;;;2.890000;69.776367
77517;BME280;68414;53.946;27.634;2024-02-15T03:46:32;99920.304688;;;2.900000;69.441406
77517;BME280;68414;53.946;27.634;2024-02-15T03:47:32;99920.078125;;;2.920000;69.170898
77517;BME280;68414;53.946;27.634;2024-02-15T03:48:32;99927.234375;;;2.910000;69.223633
77517;BME280;68414;53.946;27.634;2024-02-15T03:49:32;99923.992188;;;2.890000;68.948242
77517;BME280;68414;53.946;27.634;2024-02-15T03:50:32;99920.398438;;;2.840000;69.026367
77517;BME280;68414;53.946;27.634;2024-02-15T03:51:32;99922.695312;;;2.800000;69.392578
77517;BME280;68414;53.946;27.634;2024-02-15T03:52:32;99928.593750;;;2.820000;69.450195
77517;BME280;68414;53.946;27.634;2024-02-15T03:53:32;99928.945312;;;2.860000;69.401367
77517;BME280;68414;53.946;27.634;2024-02-15T03:54:32;99933.578125;;;2.900000;69.419922
77517;BME280;68414;53.946;27.634;2024-02-15T03:55:32;99928.843750;;;2.920000;69.412109
77517;BME280;68414;53.946;27.634;2024-02-15T03:56:32;99927.687500;;;2.880000;69.022461
77517;BME280;68414;53.946;27.634;2024-02-15T03:57:32;99932.859375;;;2.830000;69.539062
77517;BME280;68414;53.946;27.634;2024-02-15T03:58:32;99929.851562;;;2.800000;68.965820
77517;BME280;68414;53.946;27.634;2024-02-15T03:59:33;99940.585938;;;2.730000;69.642578
77517;BME280;68414;53.946;27.634;2024-02-15T04:00:32;99935.500000;;;2.720000;69.574219
77517;BME280;68414;53.946;27.634;2024-02-15T04:01:32;99937.078125;;;2.610000;69.916016
77517;BME280;68414;53.946;27.634;2024-02-15T04:02:32;99933.117188;;;2.520000;70.042969
77517;BME280;68414;53.946;27.634;2024-02-15T04:03:32;99933.312500;;;2.390000;70.925781
77517;BME280;68414;53.946;27.634;2024-02-15T04:04:32;99936.554688;;;2.410000;71.037109
77517;BME280;68414;53.946;27.634;2024-02-15T04:05:32;99938.867188;;;2.490000;71.083984
77517;BME280;68414;53.946;27.634;2024-02-15T04:06:32;99936.578125;;;2.520000;70.774414
77517;BME280;68414;53.946;27.634;2024-02-15T04:07:32;99936.625000;;;2.640000;70.661133
77517;BME280;68414;53.946;27.634;2024-02-15T04:08:32;99937.937500;;;2.730000;70.024414
77517;BME280;68414;53.946;27.634;2024-02-15T04:09:32;99933.890625;;;2.820000;69.853516
77517;BME280;68414;53.946;27.634;2024-02-15T04:10:32;99927.234375;;;2.910000;69.626953
77517;BME280;68414;53.946;27.634;2024-02-15T04:11:32;99933.476562;;;2.970000;69.462891
77517;BME280;68414;53.946;27.634;2024-02-15T04:12:32;99937.296875;;;3.010000;69.250977
77517;BME280;68414;53.946;27.634;2024-02-15T04:13:32;99932.640625;;;2.850000;68.375000
77517;BME280;68414;53.946;27.634;2024-02-15T04:14:32;99941.039062;;;2.700000;69.005859
77517;BME280;68414;53.946;27.634;2024-02-15T04:15:32;99942.921875;;;2.510000;69.279297
77517;BME280;68414;53.946;27.634;2024-02-15T04:16:32;99939.765625;;;2.430000;70.093750
77517;BME280;68414;53.946;27.634;2024-02-15T04:17:32;99942.015625;;;2.270000;70.625000
77517;BME280;68414;53.946;27.634;2024-02-15T04:18:32;99955.796875;;;2.180000;70.902344
77517;BME280;68414;53.946;27.634;2024-02-15T04:19:32;99956.453125;;;2.130000;71.199219
77517;BME280;68414;53.946;27.634;2024-02-15T04:20:32;99952.781250;;;2.140000;71.777344
77517;BME280;68414;53.946;27.634;2024-02-15T04:21:32;99951.890625;;;2.200000;71.385742
77517;BME280;68414;53.946;27.634;2024-02-15T04:22:32;99952.179688;;;2.300000;72.054688
77517;BME280;68414;53.946;27.634;2024-02-15T04:23:32;99947.968750;;;2.410000;71.789062
77517;BME280;68414;53.946;27.634;2024-02-15T04:24:33;99945.937500;;;2.550000;71.312500
77517;BME280;68414;53.946;27.634;2024-02-15T04:25:32;99943.921875;;;2.680000;70.908203
77517;BME280;68414;53.946;27.634;2024-02-15T04:26:32;99944.156250;;;2.790000;70.434570
77517;BME280;68414;53.946;27.634;2024-02-15T04:27:32;99939.562500;;;2.860000;69.728516
77517;BME280;68414;53.946;27.634;2024-02-15T04:28:32;99943.609375;;;2.880000;69.328125
77517;BME280;68414;53.946;27.634;2024-02-15T04:29:32;99942.578125;;;2.890000;69.155273
77517;BME280;68414;53.946;27.634;2024-02-15T04:30:32;99940.500000;;;2.910000;69.092773
77517;BME280;68414;53.946;27.634;2024-02-15T04:31:32;99940.828125;;;2.830000;68.656250
77517;BME280;68414;53.946;27.634;2024-02-15T04:32:32;99934.109375;;;2.690000;68.479492
77517;BME280;68414;53.946;27.634;2024-02-15T04:33:32;99940.312500;;;2.630000;69.549805
77517;BME280;68414;53.946;27.634;2024-02-15T04:34:32;99933.968750;;;2.640000;70.041016